Time;durP1;ratioP1;P1;durP2;ratioP2;P2;SDS_P1;SDS_P2;PMS_P1;PMS_P2;Temp;Humidity;BMP_temperature;BMP_pressure;BME280_temperature;BME280_humidity;BME280_pressure;Samples;Min_cycle;Max_cycle;Signal;HPM_P1;HPM_P2
2021/07/18 00:00:57;;;;;;;5.43;2.53;;;21.30;99.90;;;;;;5076163;28;20248;-78
2021/07/18 00:03:22;;;;;;;5.30;3.23;;;21.30;99.90;;;;;;5075428;28;20286;-77
2021/07/18 00:05:50;;;;;;;2.93;2.50;;;21.20;99.90;;;;;;5057237;28;20267;-77
2021/07/18 00:08:15;;;;;;;4.37;2.77;;;21.20;99.90;;;;;;5074894;28;20182;-77
2021/07/18 00:10:41;;;;;;;6.50;2.70;;;21.20;99.90;;;;;;5075087;28;20505;-77
2021/07/18 00:13:07;;;;;;;4.63;3.07;;;21.20;99.90;;;;;;5074887;28;20199;-77
2021/07/18 00:15:35;;;;;;;5.27;2.83;;;21.20;99.90;;;;;;5074808;28;20212;-76
2021/07/18 00:18:01;;;;;;;4.00;2.40;;;21.10;99.90;;;;;;5075662;28;20573;-76
2021/07/18 00:20:26;;;;;;;4.20;2.57;;;21.10;99.90;;;;;;5074895;28;20406;-76
2021/07/18 00:22:52;;;;;;;3.90;2.40;;;21.10;99.90;;;;;;5074437;28;20206;-77
2021/07/18 00:25:17;;;;;;;4.20;3.00;;;21.00;99.90;;;;;;5075569;28;20190;-77
2021/07/18 00:27:46;;;;;;;4.13;2.70;;;21.00;99.90;;;;;;5075706;28;20168;-77
2021/07/18 00:30:12;;;;;;;3.47;2.77;;;21.00;99.90;;;;;;5075150;28;20192;-76
2021/07/18 00:32:38;;;;;;;6.53;3.00;;;21.10;99.90;;;;;;5074251;28;20430;-77
2021/07/18 00:35:05;;;;;;;4.20;3.17;;;21.10;99.90;;;;;;5074239;28;20498;-76
2021/07/18 00:37:31;;;;;;;2.73;2.50;;;21.20;99.90;;;;;;5074291;28;20509;-76
2021/07/18 00:39:57;;;;;;;4.73;2.73;;;21.10;99.90;;;;;;5074402;28;20433;-77
2021/07/18 00:42:22;;;;;;;3.57;2.60;;;21.10;99.90;;;;;;5073215;28;20192;-77
2021/07/18 00:44:50;;;;;;;9.80;2.97;;;21.10;99.90;;;;;;5074406;28;20184;-77
2021/07/18 00:47:16;;;;;;;3.77;2.40;;;21.10;99.90;;;;;;5074169;28;20202;-77
2021/07/18 00:49:41;;;;;;;5.60;2.70;;;21.10;99.90;;;;;;5074105;28;20418;-77
2021/07/18 00:52:10;;;;;;;2.50;2.00;;;21.00;99.90;;;;;;5074175;28;20208;-77
2021/07/18 00:54:37;;;;;;;5.00;2.23;;;21.00;99.90;;;;;;5074565;28;20203;-78
2021/07/18 00:57:04;;;;;;;2.53;2.10;;;21.00;99.90;;;;;;5074899;28;20583;-76
2021/07/18 00:59:30;;;;;;;3.17;2.00;;;20.90;99.90;;;;;;5073676;28;20420;-76
2021/07/18 01:01:55;;;;;;;3.10;2.30;;;20.90;99.90;;;;;;5073161;28;20536;-77
2021/07/18 01:04:21;;;;;;;3.63;2.40;;;21.00;99.90;;;;;;5073800;28;20183;-77
2021/07/18 01:06:47;;;;;;;4.57;3.33;;;21.10;99.90;;;;;;5073676;28;20590;-77
2021/07/18 01:09:13;;;;;;;5.00;2.57;;;21.10;99.90;;;;;;5073702;28;20179;-77
2021/07/18 01:11:39;;;;;;;5.17;2.57;;;21.10;99.90;;;;;;5073757;28;20474;-77
2021/07/18 01:14:05;;;;;;;5.97;2.70;;;21.00;99.90;;;;;;5073692;28;20545;-77
2021/07/18 01:16:30;;;;;;;3.73;2.47;;;20.90;99.90;;;;;;5073632;28;20192;-77
2021/07/18 01:18:56;;;;;;;4.93;2.30;;;21.10;99.90;;;;;;5055630;28;20433;-77
2021/07/18 01:21:24;;;;;;;6.70;3.17;;;21.00;99.90;;;;;;5073197;28;20195;-76
2021/07/18 01:23:52;;;;;;;3.17;2.30;;;20.90;99.90;;;;;;5072783;28;20233;-77
2021/07/18 01:26:17;;;;;;;7.50;3.13;;;20.80;99.90;;;;;;5072795;28;20433;-77
2021/07/18 01:28:43;;;;;;;3.30;2.20;;;20.80;99.90;;;;;;5072798;28;20414;-76
2021/07/18 01:31:09;;;;;;;3.70;2.87;;;20.80;99.90;;;;;;5072486;28;20628;-77
2021/07/18 01:33:34;;;;;;;3.90;2.00;;;20.80;99.90;;;;;;5072669;28;20217;-77
2021/07/18 01:36:00;;;;;;;4.43;2.47;;;20.80;99.90;;;;;;5072542;28;20819;-78
2021/07/18 01:38:26;;;;;;;2.97;2.07;;;20.70;99.90;;;;;;5072656;28;20216;-77
2021/07/18 01:40:51;;;;;;;4.77;2.87;;;20.70;99.90;;;;;;5072631;28;20258;-77
2021/07/18 01:43:17;;;;;;;3.17;2.63;;;20.60;99.90;;;;;;5054023;28;20190;-78
2021/07/18 01:45:43;;;;;;;9.47;2.47;;;20.70;99.90;;;;;;5072343;28;20228;-77
2021/07/18 01:48:09;;;;;;;3.60;1.83;;;20.70;99.90;;;;;;5072142;28;20437;-78
2021/07/18 01:50:35;;;;;;;4.90;2.30;;;20.70;99.90;;;;;;5072413;28;20189;-76
2021/07/18 01:53:02;;;;;;;4.13;2.73;;;20.80;99.90;;;;;;5072003;28;20218;-77
2021/07/18 01:55:28;;;;;;;5.17;2.40;;;20.80;99.90;;;;;;5072234;28;20428;-78
2021/07/18 01:57:53;;;;;;;13.17;2.83;;;20.80;99.90;;;;;;5054176;28;20418;-77
2021/07/18 02:00:19;;;;;;;3.53;2.67;;;20.60;99.90;;;;;;5072146;28;20654;-78
2021/07/18 02:02:46;;;;;;;4.33;2.20;;;20.70;99.90;;;;;;5071804;28;20205;-76
2021/07/18 02:05:14;;;;;;;3.47;2.30;;;20.80;99.90;;;;;;5072126;28;20168;-76
2021/07/18 02:07:40;;;;;;;4.73;2.47;;;20.70;99.90;;;;;;5072054;28;20405;-77
2021/07/18 02:10:07;;;;;;;5.20;2.10;;;20.60;99.90;;;;;;5072002;28;20413;-77
2021/07/18 02:12:35;;;;;;;3.20;2.20;;;20.60;99.90;;;;;;5071652;28;20444;-77
2021/07/18 02:15:04;;;;;;;4.17;2.43;;;20.60;99.90;;;;;;5071925;28;20410;-77
2021/07/18 02:17:29;;;;;;;6.37;2.53;;;20.60;99.90;;;;;;5053677;28;20456;-77
2021/07/18 02:19:55;;;;;;;2.50;2.27;;;20.60;99.90;;;;;;5072013;28;20782;-77
2021/07/18 02:22:32;;;;;;;6.63;2.23;;;20.70;99.90;;;;;;5053664;28;20195;-77
2021/07/18 02:24:58;;;;;;;3.00;1.90;;;20.50;99.90;;;;;;5072283;28;20253;-78
2021/07/18 02:27:23;;;;;;;3.23;2.40;;;20.40;99.90;;;;;;5072088;28;20513;-76
2021/07/18 02:29:49;;;;;;;4.10;2.87;;;20.40;99.90;;;;;;5071680;28;20183;-77
2021/07/18 02:32:15;;;;;;;3.30;2.50;;;20.20;99.90;;;;;;5071918;28;20602;-77
2021/07/18 02:34:40;;;;;;;5.40;2.47;;;20.40;99.90;;;;;;5071644;28;20202;-78
2021/07/18 02:37:05;;;;;;;3.90;2.40;;;20.20;99.90;;;;;;5071488;28;20201;-77
2021/07/18 02:39:31;;;;;;;6.87;4.63;;;20.10;99.90;;;;;;5053839;28;20178;-78
2021/07/18 02:41:56;;;;;;;4.77;2.53;;;19.90;99.90;;;;;;5053444;28;20188;-77
2021/07/18 02:44:22;;;;;;;3.83;2.30;;;20.10;99.90;;;;;;5071549;28;20170;-76
2021/07/18 02:46:47;;;;;;;4.93;2.10;;;20.10;99.90;;;;;;5053494;28;20771;-75
2021/07/18 02:49:13;;;;;;;4.80;2.27;;;20.10;99.90;;;;;;5071727;28;20178;-76
2021/07/18 02:51:39;;;;;;;3.90;2.67;;;20.00;99.90;;;;;;5071238;28;20273;-77
2021/07/18 02:54:04;;;;;;;4.60;2.37;;;19.90;99.90;;;;;;5071618;28;20733;-77
2021/07/18 02:56:30;;;;;;;3.90;2.73;;;19.90;99.90;;;;;;5071326;28;20290;-76
2021/07/18 02:58:55;;;;;;;4.53;2.40;;;19.90;99.90;;;;;;5071412;28;20207;-78
2021/07/18 03:01:21;;;;;;;5.93;2.77;;;20.00;99.90;;;;;;5071259;28;20182;-77
2021/07/18 03:03:47;;;;;;;4.17;2.73;;;19.80;99.90;;;;;;5053365;28;20190;-77
2021/07/18 03:06:13;;;;;;;4.77;2.57;;;19.70;99.90;;;;;;5073825;28;20164;-76
2021/07/18 03:08:39;;;;;;;4.93;2.43;;;19.70;99.90;;;;;;5057516;28;20774;-77
2021/07/18 03:11:05;;;;;;;3.13;2.33;;;19.60;99.90;;;;;;5075354;28;20165;-77
2021/07/18 03:13:30;;;;;;;3.83;2.33;;;19.60;99.90;;;;;;5075059;28;20193;-76
2021/07/18 03:15:56;;;;;;;4.53;2.53;;;19.70;99.90;;;;;;5075169;28;20461;-77
2021/07/18 03:18:21;;;;;;;4.57;2.93;;;19.60;99.90;;;;;;5075809;28;20511;-76
2021/07/18 03:20:47;;;;;;;4.33;2.40;;;19.70;99.90;;;;;;5058536;28;20571;-77
2021/07/18 03:23:12;;;;;;;6.13;2.80;;;19.70;99.90;;;;;;5075143;28;20204;-76
2021/07/18 03:25:38;;;;;;;5.00;2.90;;;19.70;99.90;;;;;;5057165;28;20175;-77
2021/07/18 03:28:04;;;;;;;4.57;2.10;;;19.70;99.90;;;;;;5075221;28;20183;-76
2021/07/18 03:30:29;;;;;;;5.43;2.97;;;19.70;99.90;;;;;;5075411;28;20177;-77
2021/07/18 03:32:55;;;;;;;4.77;3.43;;;19.70;99.90;;;;;;5074905;28;20427;-77
2021/07/18 03:35:20;;;;;;;4.27;2.43;;;19.70;99.90;;;;;;5057058;28;20177;-76
2021/07/18 03:37:46;;;;;;;6.27;2.87;;;19.70;99.90;;;;;;5074904;28;20275;-76
2021/07/18 03:40:14;;;;;;;6.13;2.37;;;19.70;99.90;;;;;;5075017;28;20202;-78
2021/07/18 03:42:41;;;;;;;4.43;3.03;;;19.80;99.90;;;;;;5056746;28;20272;-77
2021/07/18 03:45:07;;;;;;;2.47;1.93;;;19.90;99.90;;;;;;5075060;28;20917;-76
2021/07/18 03:47:34;;;;;;;4.30;2.60;;;19.70;99.90;;;;;;5056893;28;20832;-77
2021/07/18 03:49:59;;;;;;;5.03;2.97;;;19.70;99.90;;;;;;5074620;28;20413;-76
2021/07/18 03:52:25;;;;;;;4.43;2.20;;;19.60;99.90;;;;;;5056400;28;20431;-77
2021/07/18 03:54:50;;;;;;;2.63;2.10;;;19.70;99.90;;;;;;5074596;28;20206;-77
2021/07/18 03:57:16;;;;;;;4.60;2.50;;;19.80;99.90;;;;;;5056449;28;20236;-76
2021/07/18 03:59:41;;;;;;;4.43;2.23;;;19.90;99.90;;;;;;5074496;28;20168;-77
2021/07/18 04:02:07;;;;;;;4.43;2.53;;;19.70;99.90;;;;;;5074301;28;20202;-77
2021/07/18 04:04:34;;;;;;;5.97;2.30;;;19.80;99.90;;;;;;5074517;28;20172;-77
2021/07/18 04:07:00;;;;;;;2.83;2.03;;;19.90;99.90;;;;;;5040265;28;20205;-77
2021/07/18 04:09:26;;;;;;;3.53;2.53;;;19.90;99.90;;;;;;5074438;28;20411;-76
2021/07/18 04:11:51;;;;;;;3.37;2.30;;;20.00;99.90;;;;;;5073975;28;20580;-77
2021/07/18 04:14:20;;;;;;;2.40;1.90;;;19.90;99.90;;;;;;5074234;28;20629;-77
2021/07/18 04:16:45;;;;;;;3.57;2.40;;;20.00;99.90;;;;;;5074380;28;20546;-76
2021/07/18 04:19:11;;;;;;;3.67;2.10;;;19.70;99.90;;;;;;5074220;28;20497;-76
2021/07/18 04:21:36;;;;;;;2.50;1.83;;;19.80;99.90;;;;;;5073710;28;20260;-76
2021/07/18 04:24:02;;;;;;;5.37;2.80;;;19.70;99.90;;;;;;5074344;28;20636;-76
2021/07/18 04:26:28;;;;;;;6.20;3.00;;;19.90;99.90;;;;;;5074028;28;20174;-76
2021/07/18 04:28:53;;;;;;;4.07;2.40;;;19.80;99.90;;;;;;5074049;28;20189;-77
2021/07/18 04:31:19;;;;;;;2.50;1.80;;;19.90;99.90;;;;;;5074104;28;20181;-78
2021/07/18 04:33:44;;;;;;;3.93;2.47;;;20.00;99.90;;;;;;5073748;28;20209;-77
2021/07/18 04:36:10;;;;;;;5.70;2.80;;;20.10;99.90;;;;;;5073910;28;20201;-76
2021/07/18 04:38:36;;;;;;;2.40;1.47;;;20.00;99.90;;;;;;5055792;28;20724;-78
2021/07/18 04:41:02;;;;;;;7.80;2.00;;;20.00;99.90;;;;;;5055734;28;20562;-77
2021/07/18 04:43:28;;;;;;;2.90;1.83;;;20.10;99.90;;;;;;5055368;28;20199;-76
2021/07/18 04:45:53;;;;;;;4.17;2.10;;;20.10;99.90;;;;;;5073840;28;20996;-77
2021/07/18 04:48:19;;;;;;;4.67;2.50;;;20.10;99.90;;;;;;5073448;28;20279;-77
2021/07/18 04:50:46;;;;;;;8.50;3.47;;;20.10;99.90;;;;;;5073633;28;20182;-77
2021/07/18 04:53:12;;;;;;;3.63;2.23;;;19.90;99.90;;;;;;5073121;28;20210;-78
2021/07/18 04:55:37;;;;;;;7.53;2.30;;;20.10;99.90;;;;;;5073305;28;20460;-77
2021/07/18 04:58:03;;;;;;;2.37;1.60;;;20.10;99.90;;;;;;5073458;28;20193;-76
2021/07/18 05:00:28;;;;;;;3.00;1.87;;;20.20;99.90;;;;;;5055562;28;20181;-77
2021/07/18 05:02:54;;;;;;;5.03;2.13;;;20.00;99.90;;;;;;5072921;28;20198;-77
2021/07/18 05:05:23;;;;;;;2.80;2.10;;;20.10;99.90;;;;;;5073223;28;20174;-77
2021/07/18 05:07:54;;;;;;;3.37;2.13;;;20.20;99.90;;;;;;5073272;28;20212;-76
2021/07/18 05:10:25;;;;;;;3.33;1.90;;;20.40;99.90;;;;;;5054851;28;20452;-77
2021/07/18 05:12:53;;;;;;;3.50;2.27;;;20.20;99.90;;;;;;5072834;28;20436;-78
2021/07/18 05:15:23;;;;;;;2.80;2.23;;;20.40;99.90;;;;;;5072884;28;20415;-77
2021/07/18 05:17:49;;;;;;;2.07;1.87;;;20.50;99.90;;;;;;5073199;28;20481;-78
2021/07/18 05:20:18;;;;;;;3.10;2.27;;;20.70;99.90;;;;;;5072992;28;20443;-77
2021/07/18 05:22:43;;;;;;;2.13;1.93;;;20.60;99.90;;;;;;5072502;28;20441;-77
2021/07/18 05:25:10;;;;;;;5.13;2.77;;;20.80;99.90;;;;;;5072792;28;20421;-77
2021/07/18 05:27:39;;;;;;;4.73;2.70;;;21.00;99.90;;;;;;5072650;28;20320;-77
2021/07/18 05:30:07;;;;;;;7.80;2.20;;;21.10;99.90;;;;;;5072499;28;20416;-77
2021/07/18 05:32:32;;;;;;;3.60;1.80;;;21.40;99.90;;;;;;5054402;28;20437;-77
2021/07/18 05:35:01;;;;;;;2.20;2.00;;;21.60;99.90;;;;;;5072766;28;20429;-77
2021/07/18 05:37:26;;;;;;;3.70;2.10;;;21.90;99.90;;;;;;5072413;28;20678;-76
2021/07/18 05:39:52;;;;;;;2.90;2.20;;;22.10;99.90;;;;;;5072816;28;20555;-77
2021/07/18 05:42:17;;;;;;;3.47;2.30;;;22.10;99.90;;;;;;5072094;28;20203;-76
2021/07/18 05:44:43;;;;;;;3.53;2.70;;;22.40;99.90;;;;;;5072456;28;20179;-77
2021/07/18 05:47:10;;;;;;;3.40;2.40;;;22.50;99.90;;;;;;5037768;28;20196;-77
2021/07/18 05:49:36;;;;;;;3.13;2.50;;;22.80;99.90;;;;;;5072368;28;20925;-77
2021/07/18 05:52:03;;;;;;;3.30;2.27;;;23.00;99.90;;;;;;5072015;28;20434;-76
2021/07/18 05:54:28;;;;;;;4.97;2.20;;;23.00;99.90;;;;;;5072337;28;20412;-76
2021/07/18 05:56:54;;;;;;;2.10;1.90;;;22.80;99.90;;;;;;5072258;28;20473;-75
2021/07/18 05:59:20;;;;;;;2.77;1.97;;;22.90;99.90;;;;;;5072155;28;20172;-77
2021/07/18 06:01:45;;;;;;;4.63;2.43;;;23.20;99.90;;;;;;5071892;28;20226;-77
2021/07/18 06:04:11;;;;;;;2.80;1.63;;;23.30;99.90;;;;;;5072106;28;20725;-77
2021/07/18 06:06:36;;;;;;;5.50;2.67;;;23.50;99.90;;;;;;5072096;28;20595;-78
2021/07/18 06:09:02;;;;;;;4.97;2.90;;;23.50;99.90;;;;;;5071973;28;20172;-77
2021/07/18 06:11:27;;;;;;;2.83;2.33;;;23.60;99.90;;;;;;5071975;28;20172;-78
2021/07/18 06:13:53;;;;;;;4.30;2.10;;;22.80;99.90;;;;;;5071976;28;20682;-78
2021/07/18 06:16:18;;;;;;;2.90;2.43;;;22.70;99.90;;;;;;5054105;28;20288;-77
2021/07/18 06:18:44;;;;;;;1.97;1.77;;;23.00;99.90;;;;;;5072098;28;20175;-76
2021/07/18 06:21:12;;;;;;;5.00;2.00;;;22.90;99.90;;;;;;5071824;28;20716;-76
2021/07/18 06:23:37;;;;;;;1.70;1.50;;;22.80;99.90;;;;;;5072403;28;20192;-77
2021/07/18 06:26:04;;;;;;;5.70;2.10;;;22.90;99.90;;;;;;5054586;28;20418;-77
2021/07/18 06:28:33;;;;;;;2.90;2.30;;;22.80;99.90;;;;;;5072354;28;20190;-78
2021/07/18 06:30:59;;;;;;;3.07;2.40;;;23.00;99.90;;;;;;5054958;28;20418;-76
2021/07/18 06:33:25;;;;;;;3.30;2.33;;;23.30;99.90;;;;;;5071861;28;20475;-77
2021/07/18 06:35:51;;;;;;;4.73;2.37;;;23.70;99.90;;;;;;5072091;28;20227;-77
2021/07/18 06:38:16;;;;;;;4.93;2.47;;;23.90;99.90;;;;;;5054171;28;20480;-77
2021/07/18 06:40:42;;;;;;;2.90;2.07;;;24.00;99.90;;;;;;5053244;28;20255;-77
2021/07/18 06:43:08;;;;;;;3.70;2.00;;;23.90;99.90;;;;;;5071784;28;20563;-76
2021/07/18 06:45:36;;;;;;;2.33;1.73;;;23.80;99.90;;;;;;5072161;28;20409;-76
2021/07/18 06:48:02;;;;;;;2.90;2.23;;;23.70;99.90;;;;;;5071946;28;20184;-76
2021/07/18 06:50:27;;;;;;;3.70;2.07;;;24.00;99.90;;;;;;5072393;28;20402;-76
2021/07/18 06:52:53;;;;;;;2.80;1.93;;;24.10;99.90;;;;;;5053617;28;20449;-77
2021/07/18 06:55:19;;;;;;;2.60;1.80;;;24.40;99.90;;;;;;5072164;28;20176;-77
2021/07/18 06:57:51;;;;;;;2.23;1.50;;;24.10;99.90;;;;;;5071843;28;20586;-76
2021/07/18 07:00:19;;;;;;;4.07;2.37;;;23.80;99.90;;;;;;5071786;28;20164;-77
2021/07/18 07:02:44;;;;;;;3.50;2.00;;;23.50;99.90;;;;;;5071562;28;20483;-77
2021/07/18 07:05:11;;;;;;;2.53;2.30;;;23.60;99.90;;;;;;5072054;28;20745;-77
2021/07/18 07:07:37;;;;;;;2.30;1.77;;;23.80;99.90;;;;;;5037421;28;20176;-77
2021/07/18 07:10:05;;;;;;;2.30;1.90;;;24.10;99.90;;;;;;5071953;28;20449;-77
2021/07/18 07:12:31;;;;;;;3.10;2.13;;;24.10;99.90;;;;;;5071537;28;20856;-76
2021/07/18 07:14:57;;;;;;;3.27;2.70;;;24.40;99.90;;;;;;5071790;28;20452;-77
2021/07/18 07:17:23;;;;;;;3.23;1.77;;;24.60;99.90;;;;;;5053687;28;20493;-77
2021/07/18 07:19:48;;;;;;;4.43;2.17;;;24.70;99.90;;;;;;5071665;28;20441;-77
2021/07/18 07:22:14;;;;;;;7.13;3.20;;;24.30;99.90;;;;;;5053374;28;20196;-76
2021/07/18 07:24:39;;;;;;;2.00;1.90;;;24.30;99.90;;;;;;5071884;28;20195;-78
2021/07/18 07:27:05;;;;;;;3.93;2.13;;;24.60;99.90;;;;;;5054256;28;20280;-78
2021/07/18 07:29:30;;;;;;;3.60;1.70;;;24.70;99.90;;;;;;5038056;28;20172;-78
2021/07/18 07:31:56;;;;;;;2.87;2.47;;;24.80;99.90;;;;;;5073104;28;20196;-78
2021/07/18 07:34:22;;;;;;;2.37;1.80;;;24.90;99.90;;;;;;5073185;28;20183;-76
2021/07/18 07:36:47;;;;;;;2.57;1.77;;;24.90;99.90;;;;;;5071765;28;20253;-77
2021/07/18 07:39:13;;;;;;;2.13;1.70;;;24.80;99.90;;;;;;5072084;28;20168;-77
2021/07/18 07:41:39;;;;;;;2.30;2.10;;;25.00;99.90;;;;;;5072115;28;20239;-78
2021/07/18 07:44:05;;;;;;;5.10;2.00;;;24.90;99.90;;;;;;5072711;28;20196;-77
2021/07/18 07:46:30;;;;;;;4.23;1.80;;;25.00;99.90;;;;;;5071680;28;20551;-77
2021/07/18 07:48:56;;;;;;;3.00;1.53;;;25.00;99.90;;;;;;5037671;28;20452;-77
2021/07/18 07:51:22;;;;;;;3.20;1.90;;;25.10;99.90;;;;;;5072746;28;20686;-77
2021/07/18 07:53:48;;;;;;;2.87;1.67;;;24.90;99.90;;;;;;5075679;28;20241;-77
2021/07/18 07:56:14;;;;;;;2.63;1.80;;;24.90;99.90;;;;;;5075839;28;20202;-77
2021/07/18 07:58:40;;;;;;;2.50;1.80;;;25.10;99.90;;;;;;5076189;28;20463;-78
2021/07/18 08:01:05;;;;;;;2.37;1.50;;;25.10;99.90;;;;;;5075471;28;20505;-77
2021/07/18 08:03:31;;;;;;;2.83;1.70;;;25.30;99.90;;;;;;5076115;28;20188;-77
2021/07/18 08:05:57;;;;;;;2.30;1.83;;;25.10;99.90;;;;;;5057769;28;20182;-76
2021/07/18 08:08:22;;;;;;;2.90;2.30;;;25.00;99.90;;;;;;5057476;28;20207;-77
2021/07/18 08:10:48;;;;;;;2.60;1.77;;;25.20;99.90;;;;;;5075807;28;20559;-78
2021/07/18 08:13:14;;;;;;;3.40;2.20;;;25.30;99.90;;;;;;5075055;28;20192;-77
2021/07/18 08:15:39;;;;;;;1.70;1.60;;;24.70;99.90;;;;;;5075029;28;20186;-77
2021/07/18 08:18:05;;;;;;;2.50;2.20;;;24.80;99.90;;;;;;5075523;28;20263;-76
2021/07/18 08:20:30;;;;;;;3.00;2.37;;;24.70;99.90;;;;;;5075005;28;20636;-77
2021/07/18 08:22:59;;;;;;;6.63;2.20;;;24.80;99.90;;;;;;5075493;28;20259;-77
2021/07/18 08:25:26;;;;;;;2.27;2.07;;;24.90;99.90;;;;;;5075331;28;20164;-78
2021/07/18 08:27:52;;;;;;;4.37;2.20;;;25.00;99.90;;;;;;5074964;28;20418;-77
2021/07/18 08:30:18;;;;;;;2.50;1.70;;;25.10;99.90;;;;;;5057424;28;20781;-77
2021/07/18 08:32:44;;;;;;;2.37;2.17;;;24.80;99.90;;;;;;5074972;28;20437;-77
2021/07/18 08:35:10;;;;;;;2.90;1.57;;;24.50;99.90;;;;;;5074640;28;20410;-77
2021/07/18 08:37:36;;;;;;;2.67;1.63;;;24.60;99.90;;;;;;5075505;28;20204;-77
2021/07/18 08:40:06;;;;;;;3.33;2.00;;;24.70;99.90;;;;;;5057622;28;20410;-77
2021/07/18 08:42:38;;;;;;;8.33;2.17;;;24.80;99.90;;;;;;5074985;28;20861;-76
2021/07/18 08:45:05;;;;;;;3.83;2.17;;;24.60;99.90;;;;;;5076147;28;20433;-77
2021/07/18 08:47:31;;;;;;;2.13;1.90;;;24.80;99.90;;;;;;5075804;28;20426;-77
2021/07/18 08:49:57;;;;;;;3.77;2.17;;;24.70;99.90;;;;;;5075344;28;20925;-77
2021/07/18 08:52:24;;;;;;;5.00;2.10;;;24.50;99.90;;;;;;5056799;28;20927;-78
2021/07/18 08:54:50;;;;;;;2.80;1.73;;;24.50;99.90;;;;;;5074856;28;20509;-77
2021/07/18 08:57:24;;;;;;;5.07;2.00;;;24.50;99.90;;;;;;5074280;28;20528;-77
2021/07/18 08:59:50;;;;;;;3.90;2.53;;;24.60;99.90;;;;;;5057235;28;20428;-77
2021/07/18 09:02:17;;;;;;;2.63;1.97;;;24.70;99.90;;;;;;5074704;28;20481;-77
2021/07/18 09:04:43;;;;;;;5.20;2.53;;;24.70;99.90;;;;;;5075255;28;20453;-77
2021/07/18 09:07:11;;;;;;;5.70;2.10;;;24.70;99.90;;;;;;5074554;28;20414;-77
2021/07/18 09:09:37;;;;;;;3.20;1.87;;;24.80;99.90;;;;;;5074594;28;20176;-77
2021/07/18 09:12:07;;;;;;;2.40;1.80;;;24.80;99.90;;;;;;5074279;28;20510;-77
2021/07/18 09:14:38;;;;;;;1.70;1.60;;;24.60;99.90;;;;;;5074186;28;20509;-78
2021/07/18 09:17:08;;;;;;;2.63;1.67;;;24.60;99.90;;;;;;5074312;28;20472;-78
2021/07/18 09:19:35;;;;;;;2.20;1.70;;;24.70;99.90;;;;;;5074931;28;20967;-77
2021/07/18 09:22:08;;;;;;;2.53;1.87;;;24.60;99.90;;;;;;5077693;28;20473;-76
2021/07/18 09:24:44;;;;;;;2.20;1.63;;;24.70;99.90;;;;;;5056707;28;20547;-77
2021/07/18 09:27:20;;;;;;;1.90;1.70;;;24.90;99.90;;;;;;5074511;28;20422;-78
2021/07/18 09:29:55;;;;;;;3.00;1.97;;;24.80;99.90;;;;;;5074765;28;20406;-77
2021/07/18 09:32:24;;;;;;;2.63;1.83;;;24.90;99.90;;;;;;5075087;28;20425;-77
2021/07/18 09:35:02;;;;;;;2.97;2.60;;;24.80;99.90;;;;;;5075854;28;20478;-75
2021/07/18 09:37:31;;;;;;;5.23;2.37;;;24.70;99.90;;;;;;5057618;28;20466;-77
2021/07/18 09:40:07;;;;;;;6.50;2.87;;;24.90;99.90;;;;;;5074575;28;20413;-77
2021/07/18 09:42:48;;;;;;;4.17;2.33;;;24.90;99.90;;;;;;5075463;28;20431;-77
2021/07/18 09:45:19;;;;;;;2.23;1.70;;;24.90;99.90;;;;;;5073943;28;20807;-77
2021/07/18 09:47:54;;;;;;;3.43;1.97;;;24.90;99.90;;;;;;5073825;28;20434;-76
2021/07/18 09:50:32;;;;;;;3.27;2.00;;;24.90;99.90;;;;;;5073961;28;20410;-77
2021/07/18 09:53:17;;;;;;;2.77;2.10;;;24.90;99.90;;;;;;5057597;28;20425;-77
2021/07/18 09:56:16;;;;;;;3.67;2.60;;;25.00;99.90;;;;;;5074219;28;20803;-78
2021/07/18 09:58:55;;;;;;;5.00;2.80;;;25.10;99.90;;;;;;5074603;28;20394;-79
2021/07/18 10:01:21;;;;;;;3.50;2.43;;;25.30;99.90;;;;;;5074312;28;20967;-78
2021/07/18 10:03:48;;;;;;;2.13;1.63;;;25.20;99.90;;;;;;5074270;28;20429;-78
2021/07/18 10:06:19;;;;;;;3.47;2.13;;;25.30;99.90;;;;;;5055928;28;20452;-77
2021/07/18 10:08:44;;;;;;;4.03;2.37;;;25.40;99.90;;;;;;5073956;28;20796;-77
2021/07/18 10:11:13;;;;;;;3.30;2.20;;;25.60;99.90;;;;;;5073540;28;20414;-77
2021/07/18 10:13:40;;;;;;;5.90;2.23;;;25.60;99.90;;;;;;5074316;28;20289;-78
2021/07/18 10:16:10;;;;;;;4.83;2.03;;;25.60;99.90;;;;;;5074192;28;20461;-78
2021/07/18 10:18:36;;;;;;;2.27;1.80;;;25.60;99.90;;;;;;5073581;28;20406;-77
2021/07/18 10:21:03;;;;;;;2.20;1.93;;;25.60;99.90;;;;;;5073490;28;20407;-78
2021/07/18 10:23:29;;;;;;;4.53;2.20;;;25.60;99.90;;;;;;5073085;28;20422;-77
2021/07/18 10:25:56;;;;;;;1.83;1.63;;;25.40;99.90;;;;;;5073497;28;20501;-77
2021/07/18 10:28:25;;;;;;;2.80;2.17;;;25.60;99.90;;;;;;5073936;28;20412;-77
2021/07/18 10:30:55;;;;;;;3.00;1.93;;;25.60;99.90;;;;;;5073716;28;20828;-77
2021/07/18 10:33:21;;;;;;;5.07;1.87;;;25.20;99.90;;;;;;5072564;28;20481;-77
2021/07/18 10:35:50;;;;;;;4.33;2.17;;;25.20;99.90;;;;;;5072769;28;20418;-77
2021/07/18 10:38:20;;;;;;;2.53;1.70;;;25.10;99.90;;;;;;5072699;28;20773;-78
2021/07/18 10:40:51;;;;;;;6.13;1.90;;;24.90;99.90;;;;;;5073239;28;20403;-77
2021/07/18 10:43:46;;;;;;;2.03;1.83;;;25.00;99.90;;;;;;5073913;28;20890;-77
2021/07/18 10:46:35;;;;;;;1.50;1.40;;;25.30;99.90;;;;;;5074059;28;20406;-78
2021/07/18 10:49:01;;;;;;;2.83;1.90;;;25.60;99.90;;;;;;5074136;28;20444;-77
2021/07/18 10:51:37;;;;;;;4.10;2.20;;;25.80;99.90;;;;;;5074226;28;20410;-78
2021/07/18 10:54:17;;;;;;;3.73;1.80;;;25.80;99.90;;;;;;5073927;28;20199;-78
2021/07/18 10:56:45;;;;;;;2.50;1.90;;;25.60;99.90;;;;;;5074530;28;20450;-78
2021/07/18 10:59:38;;;;;;;2.37;1.80;;;25.70;99.90;;;;;;5074696;28;20407;-78
2021/07/18 11:02:12;;;;;;;4.53;2.23;;;25.60;99.90;;;;;;5071012;28;20957;-78
2021/07/18 11:04:41;;;;;;;3.97;1.93;;;25.80;99.90;;;;;;5073770;28;20398;-77
2021/07/18 11:07:31;;;;;;;2.60;1.93;;;25.90;99.90;;;;;;5073794;28;20469;-77
2021/07/18 11:10:13;;;;;;;2.23;1.70;;;25.90;99.90;;;;;;5074120;28;20913;-77
2021/07/18 11:12:48;;;;;;;4.60;2.30;;;25.90;99.90;;;;;;5055129;28;20441;-78
2021/07/18 11:15:17;;;;;;;2.43;1.70;;;25.80;99.90;;;;;;5055675;28;20826;-76
2021/07/18 11:18:12;;;;;;;2.70;2.40;;;25.70;99.90;;;;;;5073597;28;20874;-77
2021/07/18 11:20:40;;;;;;;2.73;1.70;;;25.50;99.90;;;;;;5056853;28;20446;-78
2021/07/18 11:23:08;;;;;;;4.03;1.90;;;25.70;99.90;;;;;;5074127;28;20410;-78
2021/07/18 11:25:45;;;;;;;2.13;1.93;;;26.00;99.90;;;;;;5073291;28;20791;-78
2021/07/18 11:31:12;;;;;;;5.73;1.63;;;26.10;99.90;;;;;;5078035;28;20402;-78
2021/07/18 11:33:43;;;;;;;2.20;1.60;;;26.30;99.90;;;;;;5077124;28;20475;-78
2021/07/18 11:36:10;;;;;;;1.67;1.57;;;26.00;99.90;;;;;;5077865;28;20294;-79
2021/07/18 11:38:36;;;;;;;2.50;2.13;;;25.70;99.90;;;;;;5077112;28;20410;-77
2021/07/18 11:41:19;;;;;;;3.10;2.07;;;25.30;99.90;;;;;;5077337;28;20417;-78
2021/07/18 11:44:03;;;;;;;5.97;1.83;;;25.30;99.90;;;;;;5078076;28;20280;-78
2021/07/18 11:46:34;;;;;;;2.23;1.80;;;25.60;99.90;;;;;;5057957;28;20430;-77
2021/07/18 11:49:01;;;;;;;2.67;2.47;;;25.90;99.90;;;;;;5076027;28;20512;-78
2021/07/18 11:51:29;;;;;;;3.17;1.57;;;26.10;99.90;;;;;;5075431;28;20406;-77
2021/07/18 11:53:56;;;;;;;2.87;1.70;;;26.30;99.90;;;;;;5075876;28;20464;-76
2021/07/18 11:56:23;;;;;;;3.97;1.50;;;26.40;99.90;;;;;;5077374;28;20484;-77
2021/07/18 11:58:53;;;;;;;1.53;1.43;;;26.60;99.90;;;;;;5075782;28;20440;-76
2021/07/18 12:01:21;;;;;;;6.10;1.57;;;26.50;99.90;;;;;;5075301;28;20475;-77
2021/07/18 12:03:47;;;;;;;2.10;1.63;;;26.40;99.90;;;;;;5076484;28;20437;-77
2021/07/18 12:06:16;;;;;;;2.50;1.77;;;26.50;99.90;;;;;;5058026;28;20414;-77
2021/07/18 12:08:42;;;;;;;2.10;1.50;;;26.50;99.90;;;;;;5075970;28;20172;-78
2021/07/18 12:11:08;;;;;;;2.63;1.93;;;26.50;99.90;;;;;;5075533;28;20547;-78
2021/07/18 12:13:35;;;;;;;5.13;1.77;;;26.50;99.90;;;;;;5075248;28;20264;-77
2021/07/18 12:16:00;;;;;;;1.70;1.60;;;26.60;99.90;;;;;;5075778;28;20458;-78
2021/07/18 12:18:26;;;;;;;3.13;2.53;;;26.70;99.90;;;;;;5074919;28;20441;-78
2021/07/18 12:20:52;;;;;;;2.47;1.50;;;26.60;99.90;;;;;;5075546;28;20168;-78
2021/07/18 12:23:20;;;;;;;4.30;2.30;;;26.60;99.90;;;;;;5075457;28;20578;-77
2021/07/18 12:25:55;;;;;;;2.60;1.60;;;26.50;99.90;;;;;;5075730;28;20210;-77
2021/07/18 12:28:22;;;;;;;2.57;1.70;;;26.60;99.90;;;;;;5075265;28;20578;-78
2021/07/18 12:30:48;;;;;;;2.97;1.70;;;26.80;99.90;;;;;;5075402;28;20419;-78
2021/07/18 12:33:17;;;;;;;2.80;1.70;;;26.90;99.90;;;;;;5075087;28;20789;-76
2021/07/18 12:35:42;;;;;;;2.97;1.90;;;27.10;99.90;;;;;;5074502;28;20509;-77
2021/07/18 12:38:08;;;;;;;1.70;1.43;;;27.20;99.90;;;;;;5075274;28;20417;-78
2021/07/18 12:40:33;;;;;;;1.70;1.47;;;27.10;99.90;;;;;;5074552;28;20259;-78
2021/07/18 12:42:59;;;;;;;1.50;1.30;;;27.10;99.90;;;;;;5073888;28;20200;-79
2021/07/18 12:45:25;;;;;;;1.90;1.50;;;27.00;99.90;;;;;;5074581;28;20229;-78
2021/07/18 12:48:05;;;;;;;1.57;1.30;;;27.00;99.90;;;;;;5057635;28;20702;-78
2021/07/18 12:50:32;;;;;;;1.20;1.10;;;27.00;99.90;;;;;;5075205;28;20205;-77
2021/07/18 12:53:07;;;;;;;4.20;1.57;;;27.00;99.90;;;;;;5075076;28;20835;-77